sensor_id;sensor_type;location;lat;lon;timestamp;P1;durP1;ratioP1;P2;durP2;ratioP2
79438;SDS011;68889;48.232;10.110;2023-12-20T00:00:21;2.97;;;1.45;;
79438;SDS011;68889;48.232;10.110;2023-12-20T00:02:50;2.83;;;1.58;;
79438;SDS011;68889;48.232;10.110;2023-12-20T00:05:20;2.85;;;1.60;;
79438;SDS011;68889;48.232;10.110;2023-12-20T00:08:02;2.95;;;1.73;;
79438;SDS011;68889;48.232;10.110;2023-12-20T00:10:41;2.38;;;1.63;;
79438;SDS011;68889;48.232;10.110;2023-12-20T00:13:09;2.88;;;1.92;;
79438;SDS011;68889;48.232;10.110;2023-12-20T00:15:43;2.42;;;1.75;;
79438;SDS011;68889;48.232;10.110;2023-12-20T00:18:19;2.65;;;1.88;;
79438;SDS011;68889;48.232;10.110;2023-12-20T00:20:58;3.05;;;2.03;;
79438;SDS011;68889;48.232;10.110;2023-12-20T00:23:25;3.50;;;2.33;;
79438;SDS011;68889;48.232;10.110;2023-12-20T00:25:57;4.18;;;2.28;;
79438;SDS011;68889;48.232;10.110;2023-12-20T00:28:28;3.70;;;2.40;;
79438;SDS011;68889;48.232;10.110;2023-12-20T00:31:07;3.25;;;2.08;;
79438;SDS011;68889;48.232;10.110;2023-12-20T00:33:50;4.15;;;2.10;;
79438;SDS011;68889;48.232;10.110;2023-12-20T00:36:19;3.67;;;2.08;;
79438;SDS011;68889;48.232;10.110;2023-12-20T00:38:46;3.08;;;1.98;;
79438;SDS011;68889;48.232;10.110;2023-12-20T00:41:18;2.75;;;2.05;;
79438;SDS011;68889;48.232;10.110;2023-12-20T00:43:46;2.90;;;2.00;;
79438;SDS011;68889;48.232;10.110;2023-12-20T00:46:35;2.85;;;1.92;;
79438;SDS011;68889;48.232;10.110;2023-12-20T00:49:17;3.20;;;2.10;;
79438;SDS011;68889;48.232;10.110;2023-12-20T00:51:43;4.70;;;1.88;;
79438;SDS011;68889;48.232;10.110;2023-12-20T00:54:10;2.50;;;1.90;;
79438;SDS011;68889;48.232;10.110;2023-12-20T00:56:42;3.60;;;2.33;;
79438;SDS011;68889;48.232;10.110;2023-12-20T00:59:18;3.03;;;1.90;;
79438;SDS011;68889;48.232;10.110;2023-12-20T01:01:51;3.75;;;2.22;;
79438;SDS011;68889;48.232;10.110;2023-12-20T01:04:17;3.05;;;1.67;;
79438;SDS011;68889;48.232;10.110;2023-12-20T01:06:42;3.65;;;2.10;;
79438;SDS011;68889;48.232;10.110;2023-12-20T01:09:08;2.80;;;1.90;;
79438;SDS011;68889;48.232;10.110;2023-12-20T01:11:34;3.15;;;2.20;;
79438;SDS011;68889;48.232;10.110;2023-12-20T01:13:59;3.60;;;2.20;;
79438;SDS011;68889;48.232;10.110;2023-12-20T01:16:26;4.10;;;1.80;;
79438;SDS011;68889;48.232;10.110;2023-12-20T01:21:17;3.28;;;2.13;;
79438;SDS011;68889;48.232;10.110;2023-12-20T01:23:43;3.28;;;2.15;;
79438;SDS011;68889;48.232;10.110;2023-12-20T01:26:09;3.55;;;1.98;;
79438;SDS011;68889;48.232;10.110;2023-12-20T01:28:35;3.22;;;2.50;;
79438;SDS011;68889;48.232;10.110;2023-12-20T01:31:00;4.32;;;2.38;;
79438;SDS011;68889;48.232;10.110;2023-12-20T01:33:26;4.03;;;2.58;;
79438;SDS011;68889;48.232;10.110;2023-12-20T01:35:52;4.07;;;2.72;;
79438;SDS011;68889;48.232;10.110;2023-12-20T01:38:17;4.13;;;2.92;;
79438;SDS011;68889;48.232;10.110;2023-12-20T01:40:44;5.18;;;2.78;;
79438;SDS011;68889;48.232;10.110;2023-12-20T01:43:10;4.20;;;2.72;;
79438;SDS011;68889;48.232;10.110;2023-12-20T01:45:39;3.92;;;2.67;;
79438;SDS011;68889;48.232;10.110;2023-12-20T01:48:05;4.75;;;3.13;;
79438;SDS011;68889;48.232;10.110;2023-12-20T01:50:35;4.97;;;2.83;;
79438;SDS011;68889;48.232;10.110;2023-12-20T01:53:02;5.00;;;2.92;;
79438;SDS011;68889;48.232;10.110;2023-12-20T01:55:31;3.92;;;2.45;;
79438;SDS011;68889;48.232;10.110;2023-12-20T01:57:59;4.07;;;2.53;;
79438;SDS011;68889;48.232;10.110;2023-12-20T02:00:26;3.97;;;2.53;;
79438;SDS011;68889;48.232;10.110;2023-12-20T02:02:55;3.53;;;2.20;;
79438;SDS011;68889;48.232;10.110;2023-12-20T02:05:22;4.47;;;2.50;;
79438;SDS011;68889;48.232;10.110;2023-12-20T02:07:49;3.25;;;1.95;;
79438;SDS011;68889;48.232;10.110;2023-12-20T02:10:15;3.95;;;2.35;;
79438;SDS011;68889;48.232;10.110;2023-12-20T02:15:07;3.40;;;2.10;;
79438;SDS011;68889;48.232;10.110;2023-12-20T02:17:32;2.95;;;1.95;;
79438;SDS011;68889;48.232;10.110;2023-12-20T02:19:59;2.95;;;1.88;;
79438;SDS011;68889;48.232;10.110;2023-12-20T02:22:24;3.08;;;1.90;;
79438;SDS011;68889;48.232;10.110;2023-12-20T02:24:50;2.72;;;2.00;;
79438;SDS011;68889;48.232;10.110;2023-12-20T02:27:17;3.40;;;2.15;;
79438;SDS011;68889;48.232;10.110;2023-12-20T02:29:44;3.13;;;1.90;;
79438;SDS011;68889;48.232;10.110;2023-12-20T02:32:12;4.68;;;2.55;;
79438;SDS011;68889;48.232;10.110;2023-12-20T02:34:38;3.92;;;2.00;;
79438;SDS011;68889;48.232;10.110;2023-12-20T02:37:03;3.63;;;2.17;;
79438;SDS011;68889;48.232;10.110;2023-12-20T02:39:29;3.25;;;2.20;;
79438;SDS011;68889;48.232;10.110;2023-12-20T02:41:55;2.97;;;2.03;;
79438;SDS011;68889;48.232;10.110;2023-12-20T02:44:21;3.13;;;1.67;;
79438;SDS011;68889;48.232;10.110;2023-12-20T02:46:49;3.08;;;2.40;;
79438;SDS011;68889;48.232;10.110;2023-12-20T02:49:14;4.38;;;2.22;;
79438;SDS011;68889;48.232;10.110;2023-12-20T02:51:40;2.83;;;2.00;;
79438;SDS011;68889;48.232;10.110;2023-12-20T02:54:05;3.10;;;2.20;;
79438;SDS011;68889;48.232;10.110;2023-12-20T02:56:32;3.05;;;2.25;;
79438;SDS011;68889;48.232;10.110;2023-12-20T02:58:58;3.97;;;2.22;;
79438;SDS011;68889;48.232;10.110;2023-12-20T03:01:24;3.25;;;2.10;;
79438;SDS011;68889;48.232;10.110;2023-12-20T03:03:49;4.38;;;2.72;;
79438;SDS011;68889;48.232;10.110;2023-12-20T03:06:16;3.30;;;2.05;;
79438;SDS011;68889;48.232;10.110;2023-12-20T03:08:45;4.22;;;2.30;;
79438;SDS011;68889;48.232;10.110;2023-12-20T03:11:11;4.18;;;2.22;;
79438;SDS011;68889;48.232;10.110;2023-12-20T03:13:37;3.92;;;2.45;;
79438;SDS011;68889;48.232;10.110;2023-12-20T03:16:09;4.18;;;2.95;;
79438;SDS011;68889;48.232;10.110;2023-12-20T03:18:38;3.83;;;2.20;;
79438;SDS011;68889;48.232;10.110;2023-12-20T03:21:05;3.80;;;2.60;;
79438;SDS011;68889;48.232;10.110;2023-12-20T03:23:30;4.00;;;2.60;;
79438;SDS011;68889;48.232;10.110;2023-12-20T03:28:23;3.67;;;2.35;;
79438;SDS011;68889;48.232;10.110;2023-12-20T03:30:49;3.67;;;2.60;;
79438;SDS011;68889;48.232;10.110;2023-12-20T03:33:15;3.75;;;2.50;;
79438;SDS011;68889;48.232;10.110;2023-12-20T03:35:41;3.45;;;2.22;;
79438;SDS011;68889;48.232;10.110;2023-12-20T03:38:07;3.47;;;2.35;;
79438;SDS011;68889;48.232;10.110;2023-12-20T03:40:33;3.15;;;2.28;;
79438;SDS011;68889;48.232;10.110;2023-12-20T03:42:58;4.18;;;2.78;;
79438;SDS011;68889;48.232;10.110;2023-12-20T03:45:24;4.53;;;2.60;;
79438;SDS011;68889;48.232;10.110;2023-12-20T03:47:50;3.72;;;2.47;;
79438;SDS011;68889;48.232;10.110;2023-12-20T03:50:24;4.55;;;2.40;;
79438;SDS011;68889;48.232;10.110;2023-12-20T03:52:50;3.10;;;2.13;;
79438;SDS011;68889;48.232;10.110;2023-12-20T03:55:16;3.47;;;2.58;;
79438;SDS011;68889;48.232;10.110;2023-12-20T03:57:41;3.42;;;2.17;;
79438;SDS011;68889;48.232;10.110;2023-12-20T04:00:07;3.50;;;2.17;;
79438;SDS011;68889;48.232;10.110;2023-12-20T04:02:37;4.53;;;2.38;;
79438;SDS011;68889;48.232;10.110;2023-12-20T04:05:03;3.67;;;2.45;;
79438;SDS011;68889;48.232;10.110;2023-12-20T04:07:31;3.22;;;2.20;;
79438;SDS011;68889;48.232;10.110;2023-12-20T04:12:22;3.70;;;2.40;;
79438;SDS011;68889;48.232;10.110;2023-12-20T04:14:48;3.30;;;2.30;;
79438;SDS011;68889;48.232;10.110;2023-12-20T04:17:14;4.15;;;2.60;;
79438;SDS011;68889;48.232;10.110;2023-12-20T04:19:42;3.42;;;2.42;;
79438;SDS011;68889;48.232;10.110;2023-12-20T04:22:08;2.92;;;2.08;;
79438;SDS011;68889;48.232;10.110;2023-12-20T04:24:34;3.78;;;2.50;;
79438;SDS011;68889;48.232;10.110;2023-12-20T04:27:00;3.50;;;2.17;;
79438;SDS011;68889;48.232;10.110;2023-12-20T04:29:26;5.00;;;2.40;;
79438;SDS011;68889;48.232;10.110;2023-12-20T04:31:52;3.90;;;2.55;;
79438;SDS011;68889;48.232;10.110;2023-12-20T04:34:17;4.00;;;2.30;;
79438;SDS011;68889;48.232;10.110;2023-12-20T04:36:43;3.85;;;2.53;;
79438;SDS011;68889;48.232;10.110;2023-12-20T04:39:11;4.07;;;2.58;;
79438;SDS011;68889;48.232;10.110;2023-12-20T04:41:38;4.50;;;2.50;;
79438;SDS011;68889;48.232;10.110;2023-12-20T04:44:03;4.20;;;2.90;;
79438;SDS011;68889;48.232;10.110;2023-12-20T04:46:31;5.28;;;2.75;;
79438;SDS011;68889;48.232;10.110;2023-12-20T04:48:57;4.75;;;2.70;;
79438;SDS011;68889;48.232;10.110;2023-12-20T04:51:23;3.90;;;2.75;;
79438;SDS011;68889;48.232;10.110;2023-12-20T04:53:48;3.78;;;2.55;;
79438;SDS011;68889;48.232;10.110;2023-12-20T04:56:14;4.82;;;3.08;;
79438;SDS011;68889;48.232;10.110;2023-12-20T04:58:40;5.30;;;3.10;;
79438;SDS011;68889;48.232;10.110;2023-12-20T05:01:06;4.10;;;2.97;;
79438;SDS011;68889;48.232;10.110;2023-12-20T05:03:33;6.10;;;3.20;;
79438;SDS011;68889;48.232;10.110;2023-12-20T05:05:59;4.75;;;3.00;;
79438;SDS011;68889;48.232;10.110;2023-12-20T05:08:24;5.95;;;3.30;;
79438;SDS011;68889;48.232;10.110;2023-12-20T05:10:50;4.28;;;2.85;;
79438;SDS011;68889;48.232;10.110;2023-12-20T05:13:19;4.07;;;3.05;;
79438;SDS011;68889;48.232;10.110;2023-12-20T05:15:45;5.30;;;3.35;;
79438;SDS011;68889;48.232;10.110;2023-12-20T05:18:12;5.75;;;3.35;;
79438;SDS011;68889;48.232;10.110;2023-12-20T05:20:38;5.97;;;3.70;;
79438;SDS011;68889;48.232;10.110;2023-12-20T05:23:04;5.90;;;4.07;;
79438;SDS011;68889;48.232;10.110;2023-12-20T05:25:30;6.13;;;4.55;;
79438;SDS011;68889;48.232;10.110;2023-12-20T05:27:57;5.75;;;3.95;;
79438;SDS011;68889;48.232;10.110;2023-12-20T05:30:24;7.88;;;4.82;;
79438;SDS011;68889;48.232;10.110;2023-12-20T05:35:16;6.75;;;4.65;;
79438;SDS011;68889;48.232;10.110;2023-12-20T05:37:43;6.97;;;4.32;;
79438;SDS011;68889;48.232;10.110;2023-12-20T05:40:10;7.18;;;4.30;;
79438;SDS011;68889;48.232;10.110;2023-12-20T05:42:36;6.55;;;4.90;;
79438;SDS011;68889;48.232;10.110;2023-12-20T05:47:30;7.85;;;4.90;;
79438;SDS011;68889;48.232;10.110;2023-12-20T05:52:22;10.07;;;5.55;;
79438;SDS011;68889;48.232;10.110;2023-12-20T05:54:48;9.15;;;5.35;;
79438;SDS011;68889;48.232;10.110;2023-12-20T05:57:14;8.75;;;5.55;;
79438;SDS011;68889;48.232;10.110;2023-12-20T05:59:40;10.00;;;6.30;;
79438;SDS011;68889;48.232;10.110;2023-12-20T06:02:06;9.35;;;6.07;;
79438;SDS011;68889;48.232;10.110;2023-12-20T06:04:34;9.82;;;6.22;;
79438;SDS011;68889;48.232;10.110;2023-12-20T06:07:02;9.52;;;5.47;;
79438;SDS011;68889;48.232;10.110;2023-12-20T06:09:28;10.68;;;6.75;;
79438;SDS011;68889;48.232;10.110;2023-12-20T06:11:54;9.00;;;6.38;;
79438;SDS011;68889;48.232;10.110;2023-12-20T06:14:19;9.07;;;6.40;;
79438;SDS011;68889;48.232;10.110;2023-12-20T06:16:45;12.00;;;6.50;;
79438;SDS011;68889;48.232;10.110;2023-12-20T06:19:11;9.20;;;6.90;;
79438;SDS011;68889;48.232;10.110;2023-12-20T06:21:37;10.02;;;6.25;;
79438;SDS011;68889;48.232;10.110;2023-12-20T06:24:03;9.10;;;5.85;;
79438;SDS011;68889;48.232;10.110;2023-12-20T06:26:29;10.68;;;6.80;;
79438;SDS011;68889;48.232;10.110;2023-12-20T06:28:55;9.77;;;5.97;;
79438;SDS011;68889;48.232;10.110;2023-12-20T06:31:21;8.63;;;5.57;;
79438;SDS011;68889;48.232;10.110;2023-12-20T06:33:46;9.73;;;6.18;;
79438;SDS011;68889;48.232;10.110;2023-12-20T06:36:14;9.70;;;6.50;;
79438;SDS011;68889;48.232;10.110;2023-12-20T06:38:40;9.20;;;6.00;;
79438;SDS011;68889;48.232;10.110;2023-12-20T06:41:07;11.07;;;6.70;;
79438;SDS011;68889;48.232;10.110;2023-12-20T06:43:33;8.65;;;5.65;;
79438;SDS011;68889;48.232;10.110;2023-12-20T06:46:02;8.23;;;5.57;;
79438;SDS011;68889;48.232;10.110;2023-12-20T06:48:28;8.18;;;5.40;;
79438;SDS011;68889;48.232;10.110;2023-12-20T06:50:54;8.57;;;5.70;;
79438;SDS011;68889;48.232;10.110;2023-12-20T06:53:19;8.25;;;5.28;;
79438;SDS011;68889;48.232;10.110;2023-12-20T06:55:45;7.72;;;5.07;;
79438;SDS011;68889;48.232;10.110;2023-12-20T06:58:11;7.80;;;5.28;;
79438;SDS011;68889;48.232;10.110;2023-12-20T07:00:37;9.27;;;5.75;;
79438;SDS011;68889;48.232;10.110;2023-12-20T07:03:03;8.18;;;5.30;;
79438;SDS011;68889;48.232;10.110;2023-12-20T07:05:30;8.02;;;5.63;;
79438;SDS011;68889;48.232;10.110;2023-12-20T07:07:55;7.40;;;4.97;;
79438;SDS011;68889;48.232;10.110;2023-12-20T07:10:21;8.05;;;5.22;;
79438;SDS011;68889;48.232;10.110;2023-12-20T07:12:49;7.65;;;4.68;;
79438;SDS011;68889;48.232;10.110;2023-12-20T07:15:16;6.03;;;4.47;;
79438;SDS011;68889;48.232;10.110;2023-12-20T07:17:42;6.47;;;4.63;;
79438;SDS011;68889;48.232;10.110;2023-12-20T07:22:36;6.40;;;4.40;;
79438;SDS011;68889;48.232;10.110;2023-12-20T07:25:02;6.22;;;4.65;;
79438;SDS011;68889;48.232;10.110;2023-12-20T07:29:54;7.07;;;4.25;;
79438;SDS011;68889;48.232;10.110;2023-12-20T07:32:20;5.60;;;4.00;;
79438;SDS011;68889;48.232;10.110;2023-12-20T07:34:46;4.97;;;3.50;;
79438;SDS011;68889;48.232;10.110;2023-12-20T07:37:14;5.72;;;3.60;;
79438;SDS011;68889;48.232;10.110;2023-12-20T07:42:07;6.28;;;4.00;;
79438;SDS011;68889;48.232;10.110;2023-12-20T07:47:00;6.70;;;3.63;;
79438;SDS011;68889;48.232;10.110;2023-12-20T07:49:26;5.18;;;3.50;;
79438;SDS011;68889;48.232;10.110;2023-12-20T07:51:52;7.97;;;4.20;;
79438;SDS011;68889;48.232;10.110;2023-12-20T07:54:18;5.93;;;3.90;;
79438;SDS011;68889;48.232;10.110;2023-12-20T07:56:44;6.88;;;4.28;;
79438;SDS011;68889;48.232;10.110;2023-12-20T07:59:10;5.75;;;3.72;;
79438;SDS011;68889;48.232;10.110;2023-12-20T08:01:36;5.70;;;3.95;;
79438;SDS011;68889;48.232;10.110;2023-12-20T08:04:01;5.00;;;3.42;;
79438;SDS011;68889;48.232;10.110;2023-12-20T08:06:27;7.20;;;4.03;;
79438;SDS011;68889;48.232;10.110;2023-12-20T08:08:52;5.13;;;3.63;;
79438;SDS011;68889;48.232;10.110;2023-12-20T08:11:18;5.30;;;3.38;;
79438;SDS011;68889;48.232;10.110;2023-12-20T08:13:44;6.05;;;3.40;;
79438;SDS011;68889;48.232;10.110;2023-12-20T08:16:09;7.80;;;4.03;;
79438;SDS011;68889;48.232;10.110;2023-12-20T08:18:38;6.78;;;3.80;;
79438;SDS011;68889;48.232;10.110;2023-12-20T08:21:04;6.53;;;3.88;;
79438;SDS011;68889;48.232;10.110;2023-12-20T08:23:32;5.45;;;3.85;;
79438;SDS011;68889;48.232;10.110;2023-12-20T08:25:58;8.55;;;4.40;;
79438;SDS011;68889;48.232;10.110;2023-12-20T08:28:31;5.40;;;3.78;;
79438;SDS011;68889;48.232;10.110;2023-12-20T08:30:58;6.55;;;3.75;;
79438;SDS011;68889;48.232;10.110;2023-12-20T08:33:25;4.82;;;3.58;;
79438;SDS011;68889;48.232;10.110;2023-12-20T08:35:50;5.88;;;3.83;;
79438;SDS011;68889;48.232;10.110;2023-12-20T08:38:16;7.82;;;3.88;;
79438;SDS011;68889;48.232;10.110;2023-12-20T08:40:43;5.70;;;3.53;;
79438;SDS011;68889;48.232;10.110;2023-12-20T08:43:09;6.53;;;3.17;;
79438;SDS011;68889;48.232;10.110;2023-12-20T08:45:35;5.43;;;3.45;;
79438;SDS011;68889;48.232;10.110;2023-12-20T08:48:01;6.20;;;3.53;;
79438;SDS011;68889;48.232;10.110;2023-12-20T08:50:26;4.50;;;3.20;;
79438;SDS011;68889;48.232;10.110;2023-12-20T08:52:53;4.80;;;3.45;;
79438;SDS011;68889;48.232;10.110;2023-12-20T08:55:20;4.80;;;3.15;;
79438;SDS011;68889;48.232;10.110;2023-12-20T08:57:47;5.18;;;3.30;;
79438;SDS011;68889;48.232;10.110;2023-12-20T09:00:13;5.90;;;3.55;;
79438;SDS011;68889;48.232;10.110;2023-12-20T09:02:39;5.20;;;3.15;;
79438;SDS011;68889;48.232;10.110;2023-12-20T09:05:06;4.75;;;3.30;;
79438;SDS011;68889;48.232;10.110;2023-12-20T09:07:32;5.00;;;3.42;;
79438;SDS011;68889;48.232;10.110;2023-12-20T09:09:58;4.93;;;3.72;;
79438;SDS011;68889;48.232;10.110;2023-12-20T09:12:25;5.30;;;3.50;;
79438;SDS011;68889;48.232;10.110;2023-12-20T09:14:51;4.07;;;3.08;;
79438;SDS011;68889;48.232;10.110;2023-12-20T09:17:17;4.13;;;3.30;;
79438;SDS011;68889;48.232;10.110;2023-12-20T09:19:43;4.97;;;3.42;;
79438;SDS011;68889;48.232;10.110;2023-12-20T09:22:10;5.45;;;3.85;;
79438;SDS011;68889;48.232;10.110;2023-12-20T09:24:36;5.57;;;3.70;;
79438;SDS011;68889;48.232;10.110;2023-12-20T09:27:01;4.55;;;3.30;;
79438;SDS011;68889;48.232;10.110;2023-12-20T09:29:27;4.60;;;3.00;;
79438;SDS011;68889;48.232;10.110;2023-12-20T09:31:54;4.75;;;3.80;;
79438;SDS011;68889;48.232;10.110;2023-12-20T09:34:20;5.47;;;3.75;;
79438;SDS011;68889;48.232;10.110;2023-12-20T09:36:46;5.32;;;3.55;;
79438;SDS011;68889;48.232;10.110;2023-12-20T09:39:13;6.32;;;4.03;;
79438;SDS011;68889;48.232;10.110;2023-12-20T09:41:43;5.10;;;3.55;;
79438;SDS011;68889;48.232;10.110;2023-12-20T09:44:16;5.72;;;3.45;;
79438;SDS011;68889;48.232;10.110;2023-12-20T09:46:45;4.32;;;3.40;;
79438;SDS011;68889;48.232;10.110;2023-12-20T09:49:15;5.03;;;3.30;;
79438;SDS011;68889;48.232;10.110;2023-12-20T09:51:43;5.25;;;3.88;;
79438;SDS011;68889;48.232;10.110;2023-12-20T09:54:12;4.82;;;3.58;;
79438;SDS011;68889;48.232;10.110;2023-12-20T09:56:40;5.22;;;3.65;;
79438;SDS011;68889;48.232;10.110;2023-12-20T09:59:06;5.40;;;3.47;;
79438;SDS011;68889;48.232;10.110;2023-12-20T10:01:32;5.80;;;3.85;;
79438;SDS011;68889;48.232;10.110;2023-12-20T10:04:00;4.25;;;3.08;;
79438;SDS011;68889;48.232;10.110;2023-12-20T10:06:27;5.13;;;3.30;;
79438;SDS011;68889;48.232;10.110;2023-12-20T10:08:53;4.85;;;3.40;;
79438;SDS011;68889;48.232;10.110;2023-12-20T10:11:22;3.88;;;3.33;;
79438;SDS011;68889;48.232;10.110;2023-12-20T10:13:49;5.28;;;3.42;;
79438;SDS011;68889;48.232;10.110;2023-12-20T10:16:15;4.97;;;3.92;;
79438;SDS011;68889;48.232;10.110;2023-12-20T10:18:46;4.80;;;2.90;;
79438;SDS011;68889;48.232;10.110;2023-12-20T10:21:14;4.18;;;2.95;;
79438;SDS011;68889;48.232;10.110;2023-12-20T10:23:40;4.25;;;3.05;;
79438;SDS011;68889;48.232;10.110;2023-12-20T10:26:06;3.67;;;2.60;;
79438;SDS011;68889;48.232;10.110;2023-12-20T10:28:37;3.03;;;2.33;;
79438;SDS011;68889;48.232;10.110;2023-12-20T10:31:03;4.03;;;2.47;;
79438;SDS011;68889;48.232;10.110;2023-12-20T10:33:30;3.55;;;2.50;;
79438;SDS011;68889;48.232;10.110;2023-12-20T10:36:01;3.58;;;2.65;;
79438;SDS011;68889;48.232;10.110;2023-12-20T10:38:28;4.00;;;2.80;;
79438;SDS011;68889;48.232;10.110;2023-12-20T10:40:59;3.22;;;2.60;;
79438;SDS011;68889;48.232;10.110;2023-12-20T10:43:32;4.15;;;2.63;;
79438;SDS011;68889;48.232;10.110;2023-12-20T10:53:43;3.80;;;2.33;;
79438;SDS011;68889;48.232;10.110;2023-12-20T10:56:12;4.28;;;2.22;;
79438;SDS011;68889;48.232;10.110;2023-12-20T11:02:04;3.38;;;2.42;;
79438;SDS011;68889;48.232;10.110;2023-12-20T11:04:34;5.75;;;4.55;;
79438;SDS011;68889;48.232;10.110;2023-12-20T11:07:17;4.75;;;3.42;;
79438;SDS011;68889;48.232;10.110;2023-12-20T11:09:53;4.13;;;2.70;;
79438;SDS011;68889;48.232;10.110;2023-12-20T11:12:34;2.88;;;2.00;;
79438;SDS011;68889;48.232;10.110;2023-12-20T11:15:06;3.05;;;1.77;;
79438;SDS011;68889;48.232;10.110;2023-12-20T11:17:34;2.50;;;2.00;;
79438;SDS011;68889;48.232;10.110;2023-12-20T11:22:30;2.00;;;1.13;;
79438;SDS011;68889;48.232;10.110;2023-12-20T11:25:04;1.88;;;0.82;;
79438;SDS011;68889;48.232;10.110;2023-12-20T11:27:34;1.65;;;0.60;;
79438;SDS011;68889;48.232;10.110;2023-12-20T11:30:13;1.38;;;0.55;;
79438;SDS011;68889;48.232;10.110;2023-12-20T11:32:39;2.80;;;0.90;;
79438;SDS011;68889;48.232;10.110;2023-12-20T11:37:36;1.52;;;0.73;;
79438;SDS011;68889;48.232;10.110;2023-12-20T11:40:18;1.02;;;0.52;;
79438;SDS011;68889;48.232;10.110;2023-12-20T11:42:50;2.05;;;0.63;;
79438;SDS011;68889;48.232;10.110;2023-12-20T11:45:17;1.00;;;0.55;;
79438;SDS011;68889;48.232;10.110;2023-12-20T11:47:47;1.40;;;0.65;;
79438;SDS011;68889;48.232;10.110;2023-12-20T11:50:17;1.90;;;0.90;;
79438;SDS011;68889;48.232;10.110;2023-12-20T11:52:43;2.72;;;1.00;;
79438;SDS011;68889;48.232;10.110;2023-12-20T11:55:09;4.28;;;1.33;;
79438;SDS011;68889;48.232;10.110;2023-12-20T11:57:35;3.03;;;1.42;;
79438;SDS011;68889;48.232;10.110;2023-12-20T12:00:04;2.28;;;1.17;;
79438;SDS011;68889;48.232;10.110;2023-12-20T12:02:31;2.78;;;1.60;;
79438;SDS011;68889;48.232;10.110;2023-12-20T12:04:57;3.67;;;1.25;;
79438;SDS011;68889;48.232;10.110;2023-12-20T12:07:24;1.55;;;1.10;;
79438;SDS011;68889;48.232;10.110;2023-12-20T12:09:50;3.20;;;1.65;;
79438;SDS011;68889;48.232;10.110;2023-12-20T12:12:16;2.33;;;1.10;;
79438;SDS011;68889;48.232;10.110;2023-12-20T12:14:43;3.45;;;1.30;;
79438;SDS011;68889;48.232;10.110;2023-12-20T12:17:10;2.67;;;1.30;;
79438;SDS011;68889;48.232;10.110;2023-12-20T12:19:37;2.78;;;1.08;;
79438;SDS011;68889;48.232;10.110;2023-12-20T12:22:07;3.42;;;1.50;;
79438;SDS011;68889;48.232;10.110;2023-12-20T12:24:43;2.75;;;1.30;;
79438;SDS011;68889;48.232;10.110;2023-12-20T12:27:10;2.38;;;1.40;;
79438;SDS011;68889;48.232;10.110;2023-12-20T12:29:37;1.88;;;1.10;;
79438;SDS011;68889;48.232;10.110;2023-12-20T12:32:07;3.03;;;1.50;;
79438;SDS011;68889;48.232;10.110;2023-12-20T12:34:34;3.17;;;1.48;;
79438;SDS011;68889;48.232;10.110;2023-12-20T12:39:26;1.95;;;1.23;;
79438;SDS011;68889;48.232;10.110;2023-12-20T12:41:52;3.58;;;1.10;;
79438;SDS011;68889;48.232;10.110;2023-12-20T12:44:18;1.65;;;0.88;;
79438;SDS011;68889;48.232;10.110;2023-12-20T12:46:44;2.17;;;1.13;;
79438;SDS011;68889;48.232;10.110;2023-12-20T12:49:11;1.50;;;0.90;;
79438;SDS011;68889;48.232;10.110;2023-12-20T12:51:37;1.75;;;1.00;;
79438;SDS011;68889;48.232;10.110;2023-12-20T12:54:03;2.67;;;1.10;;
79438;SDS011;68889;48.232;10.110;2023-12-20T12:56:29;1.73;;;0.90;;
79438;SDS011;68889;48.232;10.110;2023-12-20T12:58:55;2.25;;;0.90;;
79438;SDS011;68889;48.232;10.110;2023-12-20T13:01:21;3.03;;;0.82;;
79438;SDS011;68889;48.232;10.110;2023-12-20T13:03:47;2.03;;;0.90;;
79438;SDS011;68889;48.232;10.110;2023-12-20T13:06:13;1.73;;;1.05;;
79438;SDS011;68889;48.232;10.110;2023-12-20T13:08:39;1.98;;;0.88;;
79438;SDS011;68889;48.232;10.110;2023-12-20T13:11:05;1.50;;;0.80;;
79438;SDS011;68889;48.232;10.110;2023-12-20T13:13:31;2.28;;;1.20;;
79438;SDS011;68889;48.232;10.110;2023-12-20T13:15:57;1.30;;;0.75;;
79438;SDS011;68889;48.232;10.110;2023-12-20T13:18:23;1.38;;;0.70;;
79438;SDS011;68889;48.232;10.110;2023-12-20T13:20:49;1.10;;;0.70;;
79438;SDS011;68889;48.232;10.110;2023-12-20T13:23:15;1.40;;;0.80;;
79438;SDS011;68889;48.232;10.110;2023-12-20T13:25:43;1.75;;;0.77;;
79438;SDS011;68889;48.232;10.110;2023-12-20T13:28:10;2.58;;;0.85;;
79438;SDS011;68889;48.232;10.110;2023-12-20T13:30:37;2.13;;;1.17;;
79438;SDS011;68889;48.232;10.110;2023-12-20T13:33:05;2.90;;;1.00;;
79438;SDS011;68889;48.232;10.110;2023-12-20T13:35:32;4.35;;;1.27;;
79438;SDS011;68889;48.232;10.110;2023-12-20T13:37:58;4.15;;;1.48;;
79438;SDS011;68889;48.232;10.110;2023-12-20T13:40:25;4.40;;;1.30;;
79438;SDS011;68889;48.232;10.110;2023-12-20T13:42:51;4.57;;;1.50;;
79438;SDS011;68889;48.232;10.110;2023-12-20T13:45:17;1.65;;;1.15;;
79438;SDS011;68889;48.232;10.110;2023-12-20T13:47:43;3.00;;;1.15;;
79438;SDS011;68889;48.232;10.110;2023-12-20T13:50:09;2.38;;;0.95;;
79438;SDS011;68889;48.232;10.110;2023-12-20T13:52:35;2.05;;;1.20;;
79438;SDS011;68889;48.232;10.110;2023-12-20T13:55:01;2.75;;;1.15;;
79438;SDS011;68889;48.232;10.110;2023-12-20T13:57:27;3.20;;;1.17;;
79438;SDS011;68889;48.232;10.110;2023-12-20T13:59:54;2.40;;;1.23;;
79438;SDS011;68889;48.232;10.110;2023-12-20T14:02:22;4.10;;;1.30;;
79438;SDS011;68889;48.232;10.110;2023-12-20T14:04:49;3.20;;;1.30;;
79438;SDS011;68889;48.232;10.110;2023-12-20T14:07:15;3.30;;;1.25;;
79438;SDS011;68889;48.232;10.110;2023-12-20T14:09:41;3.00;;;1.48;;
79438;SDS011;68889;48.232;10.110;2023-12-20T14:12:10;3.60;;;1.30;;
79438;SDS011;68889;48.232;10.110;2023-12-20T14:14:36;4.93;;;1.77;;
79438;SDS011;68889;48.232;10.110;2023-12-20T14:17:02;5.38;;;1.65;;
79438;SDS011;68889;48.232;10.110;2023-12-20T14:21:54;3.75;;;1.60;;
79438;SDS011;68889;48.232;10.110;2023-12-20T14:24:20;4.82;;;1.88;;
79438;SDS011;68889;48.232;10.110;2023-12-20T14:26:46;3.35;;;1.42;;
79438;SDS011;68889;48.232;10.110;2023-12-20T14:29:12;2.22;;;1.25;;
79438;SDS011;68889;48.232;10.110;2023-12-20T14:31:38;4.60;;;1.55;;
79438;SDS011;68889;48.232;10.110;2023-12-20T14:34:05;4.63;;;1.73;;
79438;SDS011;68889;48.232;10.110;2023-12-20T14:36:31;4.85;;;1.60;;
79438;SDS011;68889;48.232;10.110;2023-12-20T14:38:57;3.30;;;1.33;;
79438;SDS011;68889;48.232;10.110;2023-12-20T14:41:23;3.17;;;1.42;;
79438;SDS011;68889;48.232;10.110;2023-12-20T14:43:51;3.55;;;1.17;;
79438;SDS011;68889;48.232;10.110;2023-12-20T14:48:44;5.57;;;1.60;;
79438;SDS011;68889;48.232;10.110;2023-12-20T14:51:09;4.22;;;2.38;;
79438;SDS011;68889;48.232;10.110;2023-12-20T14:53:37;5.38;;;1.63;;
79438;SDS011;68889;48.232;10.110;2023-12-20T14:56:03;4.13;;;1.75;;
79438;SDS011;68889;48.232;10.110;2023-12-20T14:58:30;3.42;;;1.50;;
79438;SDS011;68889;48.232;10.110;2023-12-20T15:00:56;4.20;;;1.35;;
79438;SDS011;68889;48.232;10.110;2023-12-20T15:03:22;2.25;;;1.27;;
79438;SDS011;68889;48.232;10.110;2023-12-20T15:05:49;2.83;;;1.25;;
79438;SDS011;68889;48.232;10.110;2023-12-20T15:08:15;3.40;;;0.90;;
79438;SDS011;68889;48.232;10.110;2023-12-20T15:10:41;3.55;;;1.10;;
79438;SDS011;68889;48.232;10.110;2023-12-20T15:13:07;2.00;;;0.70;;
79438;SDS011;68889;48.232;10.110;2023-12-20T15:15:34;2.38;;;0.85;;
79438;SDS011;68889;48.232;10.110;2023-12-20T15:18:04;2.15;;;0.90;;
79438;SDS011;68889;48.232;10.110;2023-12-20T15:20:30;3.88;;;0.93;;
79438;SDS011;68889;48.232;10.110;2023-12-20T15:22:58;2.80;;;0.75;;